createdAt,value
2023-01-06T00:01:12.862Z,69.41
2023-01-06T00:03:44.352Z,69.77
2023-01-06T00:06:13.828Z,69.55
2023-01-06T00:08:42.194Z,69.63
2023-01-06T00:11:12.411Z,69.38
2023-01-06T00:13:42.653Z,70.50
2023-01-06T00:16:13.841Z,69.58
2023-01-06T00:18:42.799Z,69.61
2023-01-06T00:21:11.690Z,69.84
2023-01-06T00:23:40.357Z,69.74
2023-01-06T00:26:10.564Z,69.57
2023-01-06T00:28:39.700Z,69.97
2023-01-06T00:31:10.934Z,70.05
2023-01-06T00:33:41.933Z,69.81
2023-01-06T00:36:12.421Z,69.83
2023-01-06T00:38:41.558Z,69.64
2023-01-06T00:41:26.056Z,69.73
2023-01-06T00:43:54.372Z,69.65
2023-01-06T00:46:26.882Z,70.10
2023-01-06T00:49:04.762Z,70.16
2023-01-06T00:51:36.092Z,70.17
2023-01-06T00:54:04.827Z,69.78
2023-01-06T00:56:33.096Z,69.89
2023-01-06T00:59:03.763Z,69.69
2023-01-06T01:01:33.820Z,69.86
2023-01-06T01:04:02.477Z,69.95
2023-01-06T01:06:30.824Z,69.79
2023-01-06T01:09:01.606Z,70.02
2023-01-06T01:11:47.151Z,70.10
2023-01-06T01:14:17.662Z,70.00
2023-01-06T01:16:47.679Z,70.06
2023-01-06T01:19:16.293Z,70.04
2023-01-06T01:21:44.592Z,70.45
2023-01-06T01:24:12.854Z,70.18
2023-01-06T01:26:42.020Z,70.21
2023-01-06T01:29:12.423Z,69.97
2023-01-06T01:31:41.515Z,70.25
2023-01-06T01:34:12.842Z,70.28
2023-01-06T01:36:41.644Z,70.24
2023-01-06T01:39:10.598Z,70.19
2023-01-06T01:41:39.195Z,70.35
2023-01-06T01:44:41.153Z,70.22
2023-01-06T01:47:10.349Z,69.96
2023-01-06T01:49:42.350Z,70.25
2023-01-06T01:52:11.961Z,70.25
2023-01-06T01:54:41.696Z,70.13
2023-01-06T01:57:13.304Z,70.29
2023-01-06T01:59:43.234Z,70.51
2023-01-06T02:02:15.493Z,70.24
2023-01-06T02:04:50.183Z,70.37
2023-01-06T02:07:21.685Z,70.58
2023-01-06T02:09:56.062Z,70.17
2023-01-06T02:12:24.443Z,70.34
2023-01-06T02:14:52.677Z,70.14
2023-01-06T02:17:48.974Z,70.32
2023-01-06T02:20:41.138Z,70.35
2023-01-06T02:23:52.352Z,70.16
2023-01-06T02:26:59.384Z,70.20
2023-01-06T02:30:06.787Z,70.12
2023-01-06T02:33:01.600Z,70.05
2023-01-06T02:35:53.140Z,70.08
2023-01-06T02:38:33.746Z,70.03
2023-01-06T02:41:12.986Z,69.96
2023-01-06T02:43:53.473Z,70.29
2023-01-06T02:46:30.280Z,70.00
2023-01-06T02:49:11.477Z,70.22
2023-01-06T02:51:47.889Z,70.17
2023-01-06T02:54:26.508Z,70.19
2023-01-06T02:57:01.472Z,70.31
2023-01-06T02:59:35.230Z,70.19
2023-01-06T03:02:05.849Z,70.23
2023-01-06T03:04:40.872Z,70.19
2023-01-06T03:07:10.540Z,70.13
2023-01-06T03:09:40.600Z,70.22
2023-01-06T03:12:15.602Z,70.30
2023-01-06T03:14:48.264Z,70.28
2023-01-06T03:17:16.680Z,70.33
2023-01-06T03:19:46.679Z,70.12
2023-01-06T03:22:17.740Z,70.19
2023-01-06T03:24:46.747Z,70.55
2023-01-06T03:27:17.915Z,70.44
2023-01-06T03:29:47.110Z,70.46
2023-01-06T03:32:23.122Z,70.39
2023-01-06T03:35:10.682Z,70.29
2023-01-06T03:37:46.299Z,70.60
2023-01-06T03:40:28.655Z,70.39
2023-01-06T03:43:13.176Z,70.58
2023-01-06T03:45:57.659Z,70.95
2023-01-06T03:48:44.817Z,70.51
2023-01-06T03:51:29.304Z,70.58
2023-01-06T03:54:02.855Z,70.58
2023-01-06T03:56:36.677Z,70.83
2023-01-06T03:59:10.704Z,70.64
2023-01-06T04:01:43.358Z,70.94
2023-01-06T04:04:12.799Z,70.58
2023-01-06T04:06:42.512Z,70.52
2023-01-06T04:09:11.477Z,70.81
2023-01-06T04:11:57.223Z,70.82
2023-01-06T04:14:25.596Z,70.96
2023-01-06T04:16:54.587Z,70.64
2023-01-06T04:19:23.687Z,70.80
2023-01-06T04:21:53.343Z,70.77
2023-01-06T04:24:21.758Z,70.71
2023-01-06T04:26:50.009Z,70.81
2023-01-06T04:29:18.797Z,70.76
2023-01-06T04:31:47.367Z,70.71
2023-01-06T04:34:15.657Z,70.89
2023-01-06T04:36:43.930Z,70.89
2023-01-06T04:39:14.193Z,70.73
2023-01-06T04:41:42.388Z,70.71
2023-01-06T04:44:10.632Z,70.61
2023-01-06T04:46:38.923Z,70.78
2023-01-06T04:49:07.246Z,70.77
2023-01-06T04:51:35.638Z,70.81
2023-01-06T04:54:03.853Z,70.75
2023-01-06T04:56:33.912Z,70.70
2023-01-06T04:59:02.235Z,70.67
2023-01-06T05:01:30.757Z,70.86
2023-01-06T05:03:59.286Z,70.80
2023-01-06T05:06:27.537Z,70.90
2023-01-06T05:08:55.784Z,70.68
2023-01-06T05:11:25.995Z,70.71
2023-01-06T05:13:56.103Z,70.59
2023-01-06T05:16:26.262Z,70.64
2023-01-06T05:18:54.980Z,70.73
2023-01-06T05:21:24.796Z,70.75
2023-01-06T05:23:54.443Z,70.73
2023-01-06T05:26:24.245Z,70.55
2023-01-06T05:28:52.789Z,70.64
2023-01-06T05:31:22.650Z,70.87
2023-01-06T05:33:51.034Z,70.70
2023-01-06T05:36:20.253Z,70.56
2023-01-06T05:38:53.279Z,70.71
2023-01-06T05:41:21.567Z,70.45
2023-01-06T05:43:49.971Z,70.52
2023-01-06T05:46:18.264Z,70.70
2023-01-06T05:48:47.883Z,70.64
2023-01-06T05:51:17.835Z,70.87
2023-01-06T05:53:47.714Z,70.53
2023-01-06T05:56:17.934Z,70.64
2023-01-06T05:58:47.405Z,70.54
2023-01-06T06:01:20.271Z,70.75
2023-01-06T06:03:50.785Z,70.47
2023-01-06T06:06:20.526Z,70.64
2023-01-06T06:08:49.130Z,70.43
2023-01-06T06:11:18.984Z,70.61
2023-01-06T06:13:49.368Z,70.64
2023-01-06T06:16:19.479Z,70.48
2023-01-06T06:18:52.618Z,70.61
2023-01-06T06:21:22.915Z,70.69
2023-01-06T06:23:53.709Z,70.65
2023-01-06T06:26:22.883Z,70.71
2023-01-06T06:28:51.278Z,70.55
2023-01-06T06:31:22.519Z,70.50
2023-01-06T06:33:53.308Z,70.38
2023-01-06T06:36:21.885Z,70.56
2023-01-06T06:38:51.804Z,70.60
2023-01-06T06:41:21.104Z,70.58
2023-01-06T06:43:50.353Z,70.85
2023-01-06T06:46:19.478Z,70.87
2023-01-06T06:48:47.757Z,71.43
2023-01-06T06:51:19.760Z,71.30
2023-01-06T06:53:48.573Z,71.11
2023-01-06T06:56:18.007Z,71.21
2023-01-06T06:58:46.743Z,70.90
2023-01-06T07:01:17.066Z,71.15
2023-01-06T07:03:45.644Z,71.43
2023-01-06T07:06:15.871Z,71.61
2023-01-06T07:08:45.975Z,71.80
2023-01-06T07:11:14.577Z,72.20
2023-01-06T07:13:43.065Z,72.35
2023-01-06T07:16:11.738Z,72.54
2023-01-06T07:18:40.481Z,72.64
2023-01-06T07:21:09.168Z,72.54
2023-01-06T07:23:37.509Z,72.50
2023-01-06T07:26:08.013Z,72.35
2023-01-06T07:28:36.429Z,72.54
2023-01-06T07:31:05.251Z,72.78
2023-01-06T07:33:33.470Z,72.98
2023-01-06T07:36:01.752Z,73.33
2023-01-06T07:38:30.039Z,73.50
2023-01-06T07:41:00.630Z,73.64
2023-01-06T07:43:30.562Z,73.45
2023-01-06T07:45:59.001Z,73.46
2023-01-06T07:48:27.327Z,73.43
2023-01-06T07:50:55.625Z,73.34
2023-01-06T07:53:23.953Z,73.19
2023-01-06T07:55:53.593Z,72.99
2023-01-06T07:58:23.983Z,72.45
2023-01-06T08:00:53.916Z,72.27
2023-01-06T08:03:22.270Z,71.91
2023-01-06T08:05:50.847Z,71.78
2023-01-06T08:08:19.110Z,71.78
2023-01-06T08:10:47.404Z,71.75
2023-01-06T08:13:15.725Z,71.68
2023-01-06T08:15:43.966Z,71.55
2023-01-06T08:18:13.593Z,71.54
2023-01-06T08:20:41.936Z,71.59
2023-01-06T08:23:10.273Z,71.49
2023-01-06T08:25:38.587Z,71.62
2023-01-06T08:28:07.282Z,71.80
2023-01-06T08:30:39.964Z,72.10
2023-01-06T08:33:08.229Z,72.31
2023-01-06T08:35:37.948Z,72.13
2023-01-06T08:38:07.425Z,71.96
2023-01-06T08:40:35.648Z,71.82
2023-01-06T08:43:03.925Z,71.68
2023-01-06T08:45:32.385Z,71.26
2023-01-06T08:48:00.677Z,70.90
2023-01-06T08:50:29.033Z,70.73
2023-01-06T08:52:58.651Z,70.45
2023-01-06T08:55:27.029Z,70.52
2023-01-06T08:57:55.381Z,70.31
2023-01-06T09:00:23.898Z,70.15
2023-01-06T09:02:52.237Z,70.04
2023-01-06T09:05:20.497Z,70.23
2023-01-06T09:07:50.676Z,69.86
2023-01-06T09:10:20.891Z,69.84
2023-01-06T09:12:49.676Z,69.81
2023-01-06T09:15:18.501Z,69.81
2023-01-06T09:17:46.838Z,69.66
2023-01-06T09:20:15.093Z,69.37
2023-01-06T09:22:43.316Z,69.55
2023-01-06T09:25:11.682Z,69.50
2023-01-06T09:27:41.288Z,69.44
2023-01-06T09:30:10.696Z,69.74
2023-01-06T09:32:38.934Z,69.81
2023-01-06T09:35:09.205Z,69.84
2023-01-06T09:37:37.485Z,69.94
2023-01-06T09:40:08.179Z,70.03
2023-01-06T09:42:52.875Z,69.74
2023-01-06T09:45:25.913Z,69.48
2023-01-06T09:47:58.900Z,69.59
2023-01-06T09:50:35.626Z,69.78
2023-01-06T09:53:09.310Z,69.81
2023-01-06T09:55:41.759Z,69.87
2023-01-06T09:58:15.089Z,69.84
2023-01-06T10:00:45.133Z,69.61
2023-01-06T10:03:15.583Z,69.74
2023-01-06T10:05:53.636Z,70.22
2023-01-06T10:08:28.570Z,70.10
2023-01-06T10:11:11.429Z,70.08
2023-01-06T10:14:01.973Z,70.18
2023-01-06T10:16:44.055Z,70.05
2023-01-06T10:19:24.173Z,70.16
2023-01-06T10:22:05.938Z,70.04
2023-01-06T10:24:47.301Z,70.07
2023-01-06T10:27:23.175Z,69.80
2023-01-06T10:29:55.455Z,70.03
2023-01-06T10:32:26.196Z,70.01
2023-01-06T10:34:54.762Z,70.00
2023-01-06T10:37:26.203Z,70.03
2023-01-06T10:40:04.564Z,69.99
2023-01-06T10:43:02.554Z,70.12
2023-01-06T10:45:35.193Z,69.95
2023-01-06T10:48:06.620Z,70.20
2023-01-06T10:50:36.149Z,70.26
2023-01-06T10:53:06.706Z,70.14
2023-01-06T10:55:41.803Z,70.36
2023-01-06T10:58:22.613Z,70.28
2023-01-06T11:01:01.016Z,70.34
2023-01-06T11:03:34.760Z,70.25
2023-01-06T11:06:07.163Z,70.36
2023-01-06T11:08:36.629Z,70.30
2023-01-06T11:11:26.916Z,70.58
2023-01-06T11:13:57.793Z,70.66
2023-01-06T11:16:33.684Z,70.81
2023-01-06T11:19:06.657Z,70.55
2023-01-06T11:21:43.528Z,70.72
2023-01-06T11:24:20.530Z,70.81
2023-01-06T11:26:53.817Z,70.43
2023-01-06T11:29:30.432Z,70.84
2023-01-06T11:32:04.697Z,70.54
2023-01-06T11:34:34.448Z,70.62
2023-01-06T11:37:02.980Z,71.22
2023-01-06T11:39:34.372Z,71.17
2023-01-06T11:42:12.090Z,71.04
2023-01-06T11:44:42.677Z,71.17
2023-01-06T11:47:17.114Z,71.06
2023-01-06T11:49:50.794Z,70.96
2023-01-06T11:52:23.431Z,70.92
2023-01-06T11:55:00.184Z,71.03
2023-01-06T11:57:35.806Z,71.07
2023-01-06T12:00:20.239Z,70.68
2023-01-06T12:02:55.364Z,70.87
2023-01-06T12:05:35.142Z,70.96
2023-01-06T12:08:07.996Z,70.90
2023-01-06T12:10:38.039Z,70.93
2023-01-06T12:13:07.743Z,70.89
2023-01-06T12:15:36.873Z,70.75
2023-01-06T12:18:13.937Z,70.61
2023-01-06T12:20:45.843Z,70.86
2023-01-06T12:23:18.620Z,70.36
2023-01-06T12:25:49.070Z,70.59
2023-01-06T12:28:20.265Z,70.53
2023-01-06T12:30:54.833Z,70.35
2023-01-06T12:33:28.072Z,70.44
2023-01-06T12:36:00.799Z,70.29
2023-01-06T12:38:42.253Z,70.35
2023-01-06T12:41:15.608Z,70.64
2023-01-06T12:43:48.221Z,70.27
2023-01-06T12:46:21.316Z,70.42
2023-01-06T12:48:55.611Z,70.44
2023-01-06T12:51:29.525Z,70.50
2023-01-06T12:54:03.482Z,70.82
2023-01-06T12:56:53.616Z,70.62
2023-01-06T12:59:34.320Z,70.31
2023-01-06T13:02:13.455Z,70.36
2023-01-06T13:05:00.048Z,70.37
2023-01-06T13:07:40.835Z,70.32
2023-01-06T13:10:19.660Z,70.18
2023-01-06T13:13:11.963Z,70.31
2023-01-06T13:15:42.720Z,70.41
2023-01-06T13:18:19.686Z,70.25
2023-01-06T13:20:53.115Z,70.25
2023-01-06T13:23:45.217Z,70.27
2023-01-06T13:26:43.689Z,70.39
2023-01-06T13:29:22.749Z,70.00
2023-01-06T13:32:23.788Z,70.10
2023-01-06T13:35:21.868Z,69.62
2023-01-06T13:38:01.869Z,69.98
2023-01-06T13:40:34.645Z,69.74
2023-01-06T13:43:07.420Z,69.77
2023-01-06T13:45:40.044Z,69.68
2023-01-06T13:48:11.649Z,69.84
2023-01-06T13:50:42.862Z,69.77
2023-01-06T13:53:18.500Z,69.91
2023-01-06T13:55:47.071Z,70.02
2023-01-06T13:58:38.240Z,70.10
2023-01-06T14:01:09.368Z,70.19
2023-01-06T14:03:38.776Z,70.32
2023-01-06T14:06:12.268Z,70.35
2023-01-06T14:08:50.857Z,70.45
2023-01-06T14:11:30.843Z,70.47
2023-01-06T14:14:00.440Z,70.43
2023-01-06T14:16:43.027Z,70.71
2023-01-06T14:19:17.684Z,70.90
2023-01-06T14:21:46.913Z,70.96
2023-01-06T14:24:31.402Z,71.11
2023-01-06T14:27:02.719Z,71.39
2023-01-06T14:30:06.244Z,71.79
2023-01-06T14:33:11.979Z,71.89
2023-01-06T14:35:44.284Z,72.16
2023-01-06T14:38:25.235Z,72.45
2023-01-06T14:41:00.124Z,72.48
2023-01-06T14:43:35.784Z,72.68
2023-01-06T14:46:10.926Z,73.05
2023-01-06T14:48:45.475Z,73.32
2023-01-06T14:51:17.809Z,73.58
2023-01-06T14:53:51.675Z,73.64
2023-01-06T14:56:23.794Z,73.59
2023-01-06T14:58:52.007Z,73.28
2023-01-06T15:01:25.384Z,73.54
2023-01-06T15:03:59.709Z,73.48
2023-01-06T15:06:29.300Z,73.50
2023-01-06T15:09:12.304Z,73.25
2023-01-06T15:11:43.693Z,73.22
2023-01-06T15:14:28.690Z,73.22
2023-01-06T15:16:58.342Z,73.08
2023-01-06T15:19:27.171Z,73.03
2023-01-06T15:21:55.997Z,72.89
2023-01-06T15:24:26.444Z,72.90
2023-01-06T15:26:58.158Z,72.82
2023-01-06T15:29:26.888Z,72.90
2023-01-06T15:31:56.795Z,72.93
2023-01-06T15:34:31.195Z,72.87
2023-01-06T15:37:01.987Z,72.32
2023-01-06T15:39:32.414Z,72.52
2023-01-06T15:42:08.020Z,72.55
2023-01-06T15:44:39.014Z,72.07
2023-01-06T15:47:20.533Z,71.67
2023-01-06T15:49:53.798Z,71.92
2023-01-06T15:52:26.859Z,72.06
2023-01-06T15:54:57.756Z,72.04
2023-01-06T15:57:29.256Z,72.06
2023-01-06T16:00:00.797Z,72.29
2023-01-06T16:02:31.918Z,72.35
2023-01-06T16:05:01.091Z,72.38
2023-01-06T16:07:36.577Z,72.45
2023-01-06T16:10:07.973Z,72.00
2023-01-06T16:12:37.720Z,72.13
2023-01-06T16:15:41.249Z,72.15
2023-01-06T16:18:10.175Z,72.19
2023-01-06T16:20:38.495Z,72.49
2023-01-06T16:23:08.313Z,72.81
2023-01-06T16:25:36.656Z,73.21
2023-01-06T16:28:07.358Z,73.44
2023-01-06T16:30:36.632Z,73.87
2023-01-06T16:33:06.999Z,74.34
2023-01-06T16:35:35.990Z,74.92
2023-01-06T16:38:04.267Z,75.95
2023-01-06T16:40:33.405Z,76.89
2023-01-06T16:43:02.815Z,77.75
2023-01-06T16:45:39.009Z,78.23
2023-01-06T16:48:08.465Z,78.77
2023-01-06T16:50:42.015Z,79.21
2023-01-06T16:53:16.253Z,79.38
2023-01-06T16:55:45.722Z,79.62
2023-01-06T16:58:18.159Z,79.56
2023-01-06T17:00:52.238Z,79.46
2023-01-06T17:03:22.413Z,79.68
2023-01-06T17:05:51.067Z,79.06
2023-01-06T17:08:25.697Z,79.17
2023-01-06T17:10:53.986Z,79.37
2023-01-06T17:13:39.731Z,79.67
2023-01-06T17:16:17.113Z,80.32
2023-01-06T17:18:51.277Z,80.78
2023-01-06T17:21:22.107Z,81.23
2023-01-06T17:23:52.809Z,81.55
2023-01-06T17:26:24.159Z,81.74
2023-01-06T17:28:54.587Z,81.94
2023-01-06T17:31:31.768Z,81.99
2023-01-06T17:34:10.923Z,81.98
2023-01-06T17:36:40.520Z,82.20
2023-01-06T17:39:16.895Z,82.33
2023-01-06T17:41:45.251Z,82.33
2023-01-06T17:44:16.719Z,81.78
2023-01-06T17:46:47.098Z,81.72
2023-01-06T17:49:35.495Z,81.55
2023-01-06T17:52:16.814Z,81.26
2023-01-06T17:55:11.133Z,81.14
2023-01-06T17:57:41.731Z,81.01
2023-01-06T18:00:19.524Z,81.07
2023-01-06T18:02:53.411Z,80.70
2023-01-06T18:05:59.175Z,80.24
2023-01-06T18:08:28.413Z,79.96
2023-01-06T18:11:02.603Z,79.79
2023-01-06T18:13:36.860Z,79.16
2023-01-06T18:16:24.180Z,78.34
2023-01-06T18:18:53.966Z,77.24
2023-01-06T18:21:29.611Z,77.61
2023-01-06T18:23:57.867Z,77.12
2023-01-06T18:26:37.742Z,77.51
2023-01-06T18:29:14.658Z,77.47
2023-01-06T18:31:44.158Z,77.38
2023-01-06T18:34:28.058Z,77.24
2023-01-06T18:36:57.961Z,76.98
2023-01-06T18:39:28.833Z,76.86
2023-01-06T18:42:06.611Z,77.06
2023-01-06T18:44:35.212Z,77.34
2023-01-06T18:47:03.563Z,77.56
2023-01-06T18:49:34.747Z,77.56
2023-01-06T18:52:24.922Z,77.72
2023-01-06T18:54:55.615Z,77.55
2023-01-06T18:57:30.526Z,77.11
2023-01-06T19:00:02.295Z,76.51
2023-01-06T19:02:38.191Z,76.32
2023-01-06T19:05:12.848Z,76.28
2023-01-06T19:07:41.145Z,76.22
2023-01-06T19:10:25.142Z,75.76
2023-01-06T19:12:55.635Z,75.09
2023-01-06T19:15:25.827Z,74.56
2023-01-06T19:17:54.586Z,74.41
2023-01-06T19:20:26.863Z,74.24
2023-01-06T19:22:55.434Z,73.97
2023-01-06T19:25:31.838Z,73.23
2023-01-06T19:28:01.449Z,72.59
2023-01-06T19:30:42.321Z,72.87
2023-01-06T19:33:38.638Z,73.34
2023-01-06T19:36:38.646Z,74.44
2023-01-06T19:39:33.929Z,74.54
2023-01-06T19:42:14.825Z,74.29
2023-01-06T19:44:43.249Z,74.43
2023-01-06T19:47:18.796Z,74.30
2023-01-06T19:49:52.877Z,74.44
2023-01-06T19:52:35.800Z,74.82
2023-01-06T19:55:22.534Z,74.70
2023-01-06T19:57:53.173Z,74.61
2023-01-06T20:00:30.916Z,74.31
2023-01-06T20:03:01.907Z,73.72
2023-01-06T20:05:32.406Z,73.24
2023-01-06T20:08:02.061Z,72.73
2023-01-06T20:10:30.515Z,72.78
2023-01-06T20:12:58.822Z,72.69
2023-01-06T20:15:27.080Z,72.50
2023-01-06T20:17:55.348Z,72.13
2023-01-06T20:20:23.815Z,72.11
2023-01-06T20:22:52.211Z,72.03
2023-01-06T20:25:23.230Z,72.09
2023-01-06T20:27:51.651Z,71.94
2023-01-06T20:30:20.062Z,71.58
2023-01-06T20:32:48.604Z,71.81
2023-01-06T20:35:17.070Z,71.62
2023-01-06T20:37:45.406Z,71.72
2023-01-06T20:40:13.865Z,71.66
2023-01-06T20:42:43.530Z,71.67
2023-01-06T20:45:13.070Z,71.09
2023-01-06T20:47:41.883Z,70.64
2023-01-06T20:50:13.803Z,70.98
2023-01-06T20:52:42.265Z,70.96
2023-01-06T20:55:11.150Z,70.83
2023-01-06T20:57:39.487Z,70.73
2023-01-06T21:00:12.509Z,70.52
2023-01-06T21:02:41.043Z,70.60
2023-01-06T21:05:10.010Z,70.23
2023-01-06T21:07:38.317Z,70.41
2023-01-06T21:10:08.560Z,70.45
2023-01-06T21:12:37.135Z,70.52
2023-01-06T21:15:07.197Z,70.53
2023-01-06T21:17:36.951Z,70.22
2023-01-06T21:20:07.364Z,70.52
2023-01-06T21:22:35.724Z,70.76
2023-01-06T21:25:04.241Z,70.91
2023-01-06T21:27:34.012Z,70.99
2023-01-06T21:30:02.340Z,71.21
2023-01-06T21:32:31.286Z,71.48
2023-01-06T21:35:00.904Z,71.54
2023-01-06T21:37:29.177Z,71.64
2023-01-06T21:39:57.423Z,71.48
2023-01-06T21:42:42.817Z,71.69
2023-01-06T21:45:12.014Z,71.41
2023-01-06T21:47:40.293Z,71.62
2023-01-06T21:50:11.298Z,71.67
2023-01-06T21:52:39.775Z,71.73
2023-01-06T21:55:09.663Z,71.96
2023-01-06T21:57:38.040Z,71.59
2023-01-06T22:00:09.901Z,70.95
2023-01-06T22:02:43.725Z,70.73
2023-01-06T22:05:13.976Z,70.82
2023-01-06T22:07:46.171Z,70.96
2023-01-06T22:10:18.023Z,70.97
2023-01-06T22:12:48.078Z,70.96
2023-01-06T22:15:17.329Z,70.71
2023-01-06T22:17:45.661Z,70.94
2023-01-06T22:20:17.542Z,70.98
2023-01-06T22:22:46.600Z,70.71
2023-01-06T22:25:14.926Z,70.49
2023-01-06T22:27:43.165Z,70.56
2023-01-06T22:30:12.180Z,70.47
2023-01-06T22:32:44.159Z,70.62
2023-01-06T22:35:12.989Z,70.57
2023-01-06T22:37:43.301Z,70.71
2023-01-06T22:40:13.362Z,70.57
2023-01-06T22:42:41.920Z,70.61
2023-01-06T22:45:11.744Z,70.66
2023-01-06T22:47:40.102Z,70.80
2023-01-06T22:50:09.534Z,70.64
2023-01-06T22:52:37.775Z,70.69
2023-01-06T22:55:09.606Z,70.64
2023-01-06T22:57:37.940Z,70.68
2023-01-06T23:00:12.587Z,70.54
2023-01-06T23:02:41.123Z,70.51
2023-01-06T23:05:10.615Z,70.68
2023-01-06T23:07:39.914Z,70.61
2023-01-06T23:10:12.053Z,70.55
2023-01-06T23:12:41.800Z,70.45
2023-01-06T23:15:11.266Z,70.42
2023-01-06T23:17:39.863Z,70.30
2023-01-06T23:20:08.851Z,70.33
2023-01-06T23:22:37.290Z,70.38
2023-01-06T23:25:06.900Z,70.34
2023-01-06T23:27:38.063Z,70.58
2023-01-06T23:30:08.309Z,70.39
2023-01-06T23:32:36.625Z,70.36
2023-01-06T23:35:06.122Z,70.45
2023-01-06T23:37:34.929Z,70.55
2023-01-06T23:40:03.253Z,70.78
2023-01-06T23:42:40.495Z,70.74
2023-01-06T23:45:14.052Z,70.81
2023-01-06T23:47:42.444Z,70.89
2023-01-06T23:50:11.211Z,71.00
2023-01-06T23:52:39.501Z,71.12
2023-01-06T23:55:08.455Z,71.22
2023-01-06T23:57:36.755Z,71.22
